createdAt,value
2022-09-07T00:00:10.646Z,4.90
2022-09-07T00:01:10.639Z,4.80
2022-09-07T00:02:10.629Z,5.20
2022-09-07T00:03:10.711Z,5.00
2022-09-07T00:04:10.654Z,5.20
2022-09-07T00:05:10.590Z,5.00
2022-09-07T00:06:10.583Z,5.00
2022-09-07T00:07:10.570Z,4.90
2022-09-07T00:08:10.563Z,4.80
2022-09-07T00:09:10.549Z,5.00
2022-09-07T00:10:10.541Z,5.00
2022-09-07T00:11:10.528Z,4.60
2022-09-07T00:12:10.519Z,5.10
2022-09-07T00:13:10.509Z,5.10
2022-09-07T00:14:10.498Z,4.60
2022-09-07T00:15:10.485Z,5.20
2022-09-07T00:16:10.530Z,5.00
2022-09-07T00:17:10.566Z,4.80
2022-09-07T00:18:10.453Z,5.10
2022-09-07T00:19:10.441Z,4.80
2022-09-07T00:20:10.433Z,5.00
2022-09-07T00:21:10.420Z,5.00
2022-09-07T00:22:10.411Z,5.10
2022-09-07T00:23:10.401Z,4.80
2022-09-07T00:24:10.390Z,5.50
2022-09-07T00:25:10.379Z,5.10
2022-09-07T00:26:10.380Z,5.00
2022-09-07T00:27:10.357Z,4.90
2022-09-07T00:28:10.349Z,5.20
2022-09-07T00:29:10.336Z,5.30
2022-09-07T00:30:10.325Z,4.80
2022-09-07T00:31:10.366Z,5.10
2022-09-07T00:32:10.303Z,4.90
2022-09-07T00:33:10.295Z,5.10
2022-09-07T00:34:10.285Z,4.90
2022-09-07T00:35:10.269Z,5.40
2022-09-07T00:36:10.261Z,5.30
2022-09-07T00:37:10.250Z,4.80
2022-09-07T00:38:10.239Z,5.50
2022-09-07T00:39:10.228Z,5.20
2022-09-07T00:40:10.341Z,5.00
2022-09-07T00:41:10.206Z,5.10
2022-09-07T00:42:10.197Z,5.20
2022-09-07T00:43:10.185Z,4.70
2022-09-07T00:44:10.176Z,4.80
2022-09-07T00:45:10.177Z,4.80
2022-09-07T00:46:10.216Z,5.70
2022-09-07T00:47:10.143Z,5.30
2022-09-07T00:48:10.132Z,5.20
2022-09-07T00:49:10.121Z,5.40
2022-09-07T00:50:10.112Z,5.30
2022-09-07T00:51:10.099Z,5.30
2022-09-07T00:52:10.090Z,5.60
2022-09-07T00:53:10.082Z,5.50
2022-09-07T00:54:10.070Z,5.20
2022-09-07T00:55:10.056Z,5.30
2022-09-07T00:56:10.047Z,5.30
2022-09-07T00:57:10.034Z,5.30
2022-09-07T00:58:10.026Z,4.90
2022-09-07T00:59:10.020Z,5.20
2022-09-07T01:00:10.006Z,5.50
2022-09-07T01:01:09.993Z,5.00
2022-09-07T01:02:10.141Z,5.20
2022-09-07T01:03:09.971Z,5.60
2022-09-07T01:04:09.962Z,5.40
2022-09-07T01:05:09.951Z,5.50
2022-09-07T01:06:09.942Z,5.20
2022-09-07T01:07:09.928Z,5.40
2022-09-07T01:08:09.920Z,5.30
2022-09-07T01:09:09.910Z,5.20
2022-09-07T01:10:09.901Z,5.20
2022-09-07T01:11:09.889Z,5.40
2022-09-07T01:12:09.880Z,5.40
2022-09-07T01:13:09.865Z,5.00
2022-09-07T01:14:09.855Z,5.00
2022-09-07T01:15:09.844Z,5.30
2022-09-07T01:16:09.937Z,5.40
2022-09-07T01:17:09.824Z,5.60
2022-09-07T01:18:09.813Z,5.50
2022-09-07T01:19:09.803Z,5.30
2022-09-07T01:20:09.792Z,5.30
2022-09-07T01:21:09.781Z,5.50
2022-09-07T01:22:09.773Z,5.20
2022-09-07T01:23:09.757Z,5.10
2022-09-07T01:24:09.749Z,5.40
2022-09-07T01:25:09.739Z,5.20
2022-09-07T01:26:09.727Z,5.20
2022-09-07T01:27:09.715Z,5.10
2022-09-07T01:28:09.708Z,5.20
2022-09-07T01:29:09.698Z,5.20
2022-09-07T01:30:09.687Z,5.60
2022-09-07T01:31:09.749Z,5.30
2022-09-07T01:32:09.666Z,5.50
2022-09-07T01:33:09.654Z,5.30
2022-09-07T01:34:09.643Z,5.10
2022-09-07T01:35:09.631Z,5.40
2022-09-07T01:36:09.624Z,5.30
2022-09-07T01:37:09.609Z,5.30
2022-09-07T01:38:09.599Z,5.60
2022-09-07T01:39:09.588Z,5.50
2022-09-07T01:40:09.675Z,5.30
2022-09-07T01:41:09.567Z,5.60
2022-09-07T01:42:09.559Z,5.70
2022-09-07T01:43:09.547Z,5.20
2022-09-07T01:44:09.538Z,5.40
2022-09-07T01:45:09.526Z,5.50
2022-09-07T01:46:09.532Z,5.70
2022-09-07T01:47:09.503Z,5.60
2022-09-07T01:48:09.494Z,5.40
2022-09-07T01:49:09.482Z,5.30
2022-09-07T01:50:09.472Z,5.60
2022-09-07T01:51:09.460Z,5.30
2022-09-07T01:52:09.457Z,5.70
2022-09-07T01:53:09.442Z,5.60
2022-09-07T01:54:09.431Z,5.60
2022-09-07T01:55:09.419Z,5.70
2022-09-07T01:56:09.409Z,5.30
2022-09-07T01:57:09.397Z,5.40
2022-09-07T01:58:09.389Z,5.50
2022-09-07T01:59:09.480Z,5.90
2022-09-07T02:00:09.365Z,5.80
2022-09-07T02:01:09.354Z,5.80
2022-09-07T02:02:09.438Z,5.80
2022-09-07T02:03:09.381Z,5.80
2022-09-07T02:04:09.324Z,5.50
2022-09-07T02:05:09.311Z,5.60
2022-09-07T02:06:09.303Z,5.40
2022-09-07T02:07:09.291Z,5.60
2022-09-07T02:08:09.280Z,5.40
2022-09-07T02:09:09.270Z,5.50
2022-09-07T02:10:09.266Z,6.00
2022-09-07T02:11:09.249Z,6.10
2022-09-07T02:12:09.239Z,5.50
2022-09-07T02:13:09.225Z,5.90
2022-09-07T02:14:09.217Z,5.60
2022-09-07T02:15:09.207Z,5.70
2022-09-07T02:16:09.256Z,5.80
2022-09-07T02:17:09.184Z,5.70
2022-09-07T02:18:09.176Z,5.80
2022-09-07T02:19:09.166Z,6.10
2022-09-07T02:20:09.154Z,6.00
2022-09-07T02:21:09.145Z,5.70
2022-09-07T02:22:09.133Z,5.80
2022-09-07T02:23:09.119Z,5.90
2022-09-07T02:24:09.113Z,5.30
2022-09-07T02:25:09.102Z,5.70
2022-09-07T02:26:09.091Z,6.40
2022-09-07T02:27:09.076Z,6.00
2022-09-07T02:28:09.066Z,5.80
2022-09-07T02:29:09.056Z,5.70
2022-09-07T02:30:09.048Z,5.80
2022-09-07T02:31:09.068Z,5.80
2022-09-07T02:32:09.025Z,6.20
2022-09-07T02:33:09.014Z,5.50
2022-09-07T02:34:09.004Z,5.90
2022-09-07T02:35:09.006Z,5.80
2022-09-07T02:36:08.983Z,5.90
2022-09-07T02:37:08.975Z,5.50
2022-09-07T02:38:08.962Z,5.80
2022-09-07T02:39:08.950Z,5.40
2022-09-07T02:40:08.991Z,5.90
2022-09-07T02:41:08.929Z,6.90
2022-09-07T02:42:08.918Z,5.30
2022-09-07T02:43:08.924Z,5.80
2022-09-07T02:44:08.898Z,5.70
2022-09-07T02:45:08.889Z,5.90
2022-09-07T02:46:08.990Z,5.80
2022-09-07T02:47:08.958Z,5.90
2022-09-07T02:48:08.951Z,5.90
2022-09-07T02:49:08.984Z,6.10
2022-09-07T02:50:08.994Z,6.20
2022-09-07T02:51:08.979Z,5.80
2022-09-07T02:52:08.928Z,6.00
2022-09-07T02:53:08.798Z,5.90
2022-09-07T02:54:08.791Z,6.10
2022-09-07T02:55:08.780Z,6.10
2022-09-07T02:56:08.765Z,6.10
2022-09-07T02:57:08.757Z,5.90
2022-09-07T02:58:08.746Z,6.40
2022-09-07T02:59:08.834Z,5.70
2022-09-07T03:00:08.723Z,6.00
2022-09-07T03:01:08.764Z,6.10
2022-09-07T03:02:08.791Z,6.00
2022-09-07T03:03:08.694Z,5.90
2022-09-07T03:04:08.680Z,5.90
2022-09-07T03:05:08.676Z,5.70
2022-09-07T03:06:08.658Z,5.80
2022-09-07T03:07:08.658Z,5.60
2022-09-07T03:08:08.636Z,5.90
2022-09-07T03:09:08.628Z,5.90
2022-09-07T03:10:08.617Z,6.00
2022-09-07T03:11:08.608Z,6.30
2022-09-07T03:12:08.594Z,5.90
2022-09-07T03:13:08.586Z,6.50
2022-09-07T03:14:08.571Z,6.40
2022-09-07T03:15:08.562Z,7.20
2022-09-07T03:16:08.588Z,7.00
2022-09-07T03:17:08.538Z,8.50
2022-09-07T03:18:08.524Z,9.30
2022-09-07T03:19:08.517Z,9.50
2022-09-07T03:20:08.501Z,9.40
2022-09-07T03:21:08.492Z,9.00
2022-09-07T03:22:08.483Z,9.70
2022-09-07T03:23:08.482Z,9.80
2022-09-07T03:24:08.456Z,10.10
2022-09-07T03:25:08.448Z,10.20
2022-09-07T03:26:08.437Z,9.90
2022-09-07T03:27:08.424Z,10.10
2022-09-07T03:28:08.417Z,10.00
2022-09-07T03:29:08.400Z,10.00
2022-09-07T03:30:08.388Z,10.10
2022-09-07T03:31:08.465Z,10.10
2022-09-07T03:32:08.369Z,10.30
2022-09-07T03:33:08.356Z,9.90
2022-09-07T03:34:08.340Z,11.00
2022-09-07T03:35:08.336Z,11.10
2022-09-07T03:36:08.319Z,13.60
2022-09-07T03:37:08.309Z,13.70
2022-09-07T03:38:08.296Z,13.70
2022-09-07T03:39:08.286Z,14.50
2022-09-07T03:40:08.385Z,15.20
2022-09-07T03:41:08.263Z,16.10
2022-09-07T03:42:08.260Z,17.10
2022-09-07T03:43:08.243Z,17.00
2022-09-07T03:44:08.231Z,16.70
2022-09-07T03:45:08.223Z,18.00
2022-09-07T03:46:08.291Z,20.70
2022-09-07T03:47:08.201Z,21.50
2022-09-07T03:48:08.191Z,22.40
2022-09-07T03:49:08.179Z,22.80
2022-09-07T03:50:08.168Z,22.30
2022-09-07T03:51:08.159Z,21.60
2022-09-07T03:52:08.147Z,23.20
2022-09-07T03:53:08.141Z,24.70
2022-09-07T03:54:08.124Z,23.90
2022-09-07T03:55:08.115Z,23.80
2022-09-07T03:56:08.105Z,23.80
2022-09-07T03:57:08.097Z,22.90
2022-09-07T03:58:08.085Z,23.80
2022-09-07T03:59:08.072Z,23.30
2022-09-07T04:00:08.632Z,23.40
2022-09-07T04:01:08.133Z,23.70
2022-09-07T04:02:08.058Z,21.60
2022-09-07T04:03:08.032Z,21.30
2022-09-07T04:04:08.020Z,21.80
2022-09-07T04:05:08.009Z,18.20
2022-09-07T04:06:08.017Z,18.40
2022-09-07T04:07:07.989Z,19.50
2022-09-07T04:08:07.977Z,19.40
2022-09-07T04:09:07.967Z,20.30
2022-09-07T04:10:07.955Z,18.80
2022-09-07T04:11:07.946Z,16.90
2022-09-07T04:12:07.936Z,15.70
2022-09-07T04:13:07.926Z,16.80
2022-09-07T04:14:07.910Z,15.60
2022-09-07T04:15:07.901Z,16.30
2022-09-07T04:16:07.893Z,15.50
2022-09-07T04:17:07.951Z,15.70
2022-09-07T04:18:07.870Z,16.10
2022-09-07T04:19:07.861Z,14.50
2022-09-07T04:20:07.851Z,14.10
2022-09-07T04:21:07.840Z,13.90
2022-09-07T04:22:07.826Z,14.50
2022-09-07T04:23:07.817Z,14.40
2022-09-07T04:24:07.803Z,15.40
2022-09-07T04:25:07.797Z,14.90
2022-09-07T04:26:07.783Z,15.50
2022-09-07T04:27:07.775Z,15.70
2022-09-07T04:28:07.762Z,15.50
2022-09-07T04:29:07.754Z,14.80
2022-09-07T04:30:07.742Z,15.60
2022-09-07T04:31:07.813Z,15.10
2022-09-07T04:32:08.398Z,16.00
2022-09-07T04:33:07.713Z,15.90
2022-09-07T04:34:07.705Z,15.90
2022-09-07T04:35:07.694Z,15.50
2022-09-07T04:36:07.678Z,15.20
2022-09-07T04:37:07.669Z,14.80
2022-09-07T04:38:07.656Z,15.10
2022-09-07T04:39:07.649Z,14.40
2022-09-07T04:40:07.697Z,14.60
2022-09-07T04:41:07.634Z,20.00
2022-09-07T04:42:07.616Z,19.70
2022-09-07T04:43:07.605Z,15.70
2022-09-07T04:44:07.595Z,15.10
2022-09-07T04:45:07.582Z,14.80
2022-09-07T04:46:07.611Z,15.00
2022-09-07T04:47:07.581Z,14.80
2022-09-07T04:48:07.554Z,15.10
2022-09-07T04:49:07.538Z,16.00
2022-09-07T04:50:07.529Z,14.70
2022-09-07T04:51:07.518Z,15.50
2022-09-07T04:52:07.503Z,15.70
2022-09-07T04:53:07.541Z,14.20
2022-09-07T04:54:07.490Z,13.90
2022-09-07T04:55:07.480Z,14.00
2022-09-07T04:56:07.464Z,13.90
2022-09-07T04:57:07.455Z,13.20
2022-09-07T04:58:07.542Z,13.20
2022-09-07T04:59:07.441Z,13.50
2022-09-07T05:00:07.429Z,12.70
2022-09-07T05:01:07.475Z,12.60
2022-09-07T05:02:08.494Z,12.10
2022-09-07T05:03:07.396Z,13.20
2022-09-07T05:04:07.438Z,13.00
2022-09-07T05:05:07.528Z,13.20
2022-09-07T05:06:07.363Z,12.70
2022-09-07T05:07:07.347Z,12.50
2022-09-07T05:08:07.352Z,12.50
2022-09-07T05:09:07.328Z,12.60
2022-09-07T05:10:07.312Z,12.70
2022-09-07T05:11:07.306Z,12.30
2022-09-07T05:12:07.296Z,11.30
2022-09-07T05:13:07.282Z,12.50
2022-09-07T05:14:07.271Z,11.30
2022-09-07T05:15:07.261Z,12.30
2022-09-07T05:16:07.305Z,11.90
2022-09-07T05:17:07.240Z,13.10
2022-09-07T05:18:07.239Z,14.00
2022-09-07T05:19:07.220Z,13.20
2022-09-07T05:20:07.210Z,12.60
2022-09-07T05:21:07.197Z,13.00
2022-09-07T05:22:07.195Z,12.70
2022-09-07T05:23:07.180Z,11.90
2022-09-07T05:24:07.164Z,12.40
2022-09-07T05:25:07.155Z,12.30
2022-09-07T05:26:07.143Z,12.70
2022-09-07T05:27:07.135Z,12.50
2022-09-07T05:28:07.127Z,12.60
2022-09-07T05:30:07.469Z,12.40
2022-09-07T05:32:07.079Z,12.70
2022-09-07T05:33:07.072Z,13.10
2022-09-07T05:35:07.053Z,13.20
2022-09-07T05:36:07.038Z,13.50
2022-09-07T05:37:07.029Z,13.90
2022-09-07T05:38:07.016Z,13.60
2022-09-07T05:39:07.013Z,13.90
2022-09-07T05:40:07.111Z,13.60
2022-09-07T05:41:06.985Z,13.50
2022-09-07T05:42:06.975Z,13.50
2022-09-07T05:43:06.967Z,14.00
2022-09-07T05:45:06.942Z,13.80
2022-09-07T05:46:07.002Z,14.70
2022-09-07T05:47:06.921Z,14.50
2022-09-07T05:48:06.907Z,14.20
2022-09-07T05:49:06.905Z,14.00
2022-09-07T05:50:06.889Z,13.80
2022-09-07T05:51:06.878Z,14.20
2022-09-07T05:52:06.927Z,14.00
2022-09-07T05:53:06.856Z,14.40
2022-09-07T05:54:06.850Z,15.00
2022-09-07T05:55:26.186Z,14.40
2022-09-07T05:56:07.208Z,14.50
2022-09-07T05:57:06.816Z,14.30
2022-09-07T05:58:06.803Z,14.00
2022-09-07T05:59:06.793Z,14.20
2022-09-07T06:00:06.779Z,15.00
2022-09-07T06:01:06.769Z,15.10
2022-09-07T06:02:06.912Z,14.90
2022-09-07T06:03:06.867Z,15.50
2022-09-07T06:04:06.737Z,14.50
2022-09-07T06:05:06.723Z,14.80
2022-09-07T06:06:06.715Z,15.10
2022-09-07T06:07:23.142Z,14.70
2022-09-07T06:08:07.733Z,15.30
2022-09-07T06:09:06.793Z,12.90
2022-09-07T06:11:06.661Z,13.80
2022-09-07T06:12:06.646Z,14.30
2022-09-07T06:13:06.635Z,15.20
2022-09-07T06:14:06.622Z,14.40
2022-09-07T06:15:06.615Z,14.30
2022-09-07T06:16:06.663Z,14.60
2022-09-07T06:17:06.589Z,13.70
2022-09-07T06:18:06.580Z,14.20
2022-09-07T06:19:06.568Z,14.80
2022-09-07T06:20:06.661Z,14.30
2022-09-07T06:21:06.547Z,15.70
2022-09-07T06:22:06.532Z,15.20
2022-09-07T06:23:06.536Z,15.10
2022-09-07T06:24:06.517Z,16.00
2022-09-07T06:25:06.506Z,15.20
2022-09-07T06:26:06.487Z,15.20
2022-09-07T06:27:06.481Z,14.90
2022-09-07T06:28:06.469Z,14.90
2022-09-07T06:29:06.459Z,15.80
2022-09-07T06:30:06.457Z,15.50
2022-09-07T06:31:06.439Z,15.10
2022-09-07T06:33:06.430Z,16.60
2022-09-07T06:34:06.407Z,15.60
2022-09-07T06:35:06.395Z,16.30
2022-09-07T06:36:06.381Z,14.90
2022-09-07T06:37:06.374Z,15.60
2022-09-07T06:38:06.360Z,16.10
2022-09-07T06:39:06.350Z,16.70
2022-09-07T06:40:06.454Z,16.70
2022-09-07T06:42:06.314Z,16.60
2022-09-07T06:43:06.310Z,16.80
2022-09-07T06:44:06.296Z,16.60
2022-09-07T06:45:06.286Z,16.50
2022-09-07T06:47:06.266Z,16.30
2022-09-07T06:48:06.252Z,17.60
2022-09-07T06:49:06.243Z,17.10
2022-09-07T06:50:06.231Z,17.20
2022-09-07T06:51:06.220Z,16.90
2022-09-07T06:52:06.208Z,17.20
2022-09-07T06:55:06.193Z,16.70
2022-09-07T06:56:06.161Z,17.30
2022-09-07T06:57:06.157Z,16.30
2022-09-07T06:58:06.172Z,15.70
2022-09-07T06:59:06.247Z,15.80
2022-09-07T07:00:06.310Z,16.00
2022-09-07T07:01:06.216Z,15.30
2022-09-07T07:02:06.217Z,15.90
2022-09-07T07:03:06.127Z,16.20
2022-09-07T07:04:06.068Z,16.60
2022-09-07T07:05:06.320Z,16.60
2022-09-07T07:06:06.048Z,16.20
2022-09-07T07:07:06.038Z,17.80
2022-09-07T07:08:06.026Z,16.50
2022-09-07T07:09:06.044Z,15.90
2022-09-07T07:10:06.275Z,16.30
2022-09-07T07:11:05.991Z,16.00
2022-09-07T07:12:05.982Z,16.40
2022-09-07T07:13:06.044Z,15.60
2022-09-07T07:14:05.963Z,16.40
2022-09-07T07:15:05.952Z,16.20
2022-09-07T07:16:05.995Z,16.40
2022-09-07T07:17:05.927Z,17.00
2022-09-07T07:18:20.436Z,16.90
2022-09-07T07:19:05.907Z,16.70
2022-09-07T07:20:05.895Z,17.20
2022-09-07T07:21:05.884Z,15.70
2022-09-07T07:22:18.601Z,14.80
2022-09-07T07:23:06.891Z,14.40
2022-09-07T07:24:08.175Z,14.00
2022-09-07T07:25:05.840Z,13.70
2022-09-07T07:26:05.830Z,14.30
2022-09-07T07:27:05.918Z,14.30
2022-09-07T07:29:05.801Z,12.70
2022-09-07T07:30:05.787Z,12.60
2022-09-07T07:31:09.471Z,12.40
2022-09-07T07:32:05.762Z,12.00
2022-09-07T07:33:07.211Z,11.60
2022-09-07T07:34:05.796Z,12.30
2022-09-07T07:35:05.734Z,12.50
2022-09-07T07:36:05.723Z,12.50
2022-09-07T07:37:05.712Z,11.30
2022-09-07T07:39:05.892Z,11.50
2022-09-07T07:40:24.373Z,10.80
2022-09-07T07:42:06.322Z,11.10
2022-09-07T07:43:07.454Z,11.30
2022-09-07T07:44:05.634Z,11.80
2022-09-07T07:46:06.316Z,11.60
2022-09-07T07:47:05.657Z,11.80
2022-09-07T07:48:05.591Z,11.80
2022-09-07T07:49:05.578Z,11.40
2022-09-07T07:50:35.567Z,10.50
2022-09-07T07:51:11.895Z,10.10
2022-09-07T07:54:05.530Z,11.30
2022-09-07T07:55:42.904Z,11.80
2022-09-07T07:56:06.540Z,11.20
2022-09-07T07:57:05.495Z,12.00
2022-09-07T07:58:05.493Z,11.90
2022-09-07T07:59:05.473Z,12.30
2022-09-07T08:00:05.461Z,11.80
2022-09-07T08:01:05.487Z,11.60
2022-09-07T08:02:05.886Z,11.70
2022-09-07T08:03:05.428Z,12.00
2022-09-07T08:04:05.418Z,11.40
2022-09-07T08:05:05.415Z,11.60
2022-09-07T08:06:05.427Z,11.40
2022-09-07T08:07:10.227Z,11.30
2022-09-07T08:08:05.379Z,11.20
2022-09-07T08:09:05.364Z,11.50
2022-09-07T08:10:05.357Z,11.20
2022-09-07T08:11:05.342Z,11.30
2022-09-07T08:12:05.332Z,12.60
2022-09-07T08:13:05.318Z,11.50
2022-09-07T08:14:05.309Z,12.70
2022-09-07T08:15:05.301Z,10.80
2022-09-07T08:16:05.359Z,10.80
2022-09-07T08:17:05.275Z,11.20
2022-09-07T08:18:05.267Z,11.10
2022-09-07T08:19:05.254Z,11.80
2022-09-07T08:20:05.246Z,11.70
2022-09-07T08:21:05.233Z,11.70
2022-09-07T08:22:05.244Z,11.50
2022-09-07T08:23:05.211Z,10.80
2022-09-07T08:24:05.201Z,11.00
2022-09-07T08:25:05.188Z,11.40
2022-09-07T08:26:05.179Z,10.80
2022-09-07T08:27:05.180Z,11.20
2022-09-07T08:28:05.158Z,10.90
2022-09-07T08:29:05.146Z,11.10
2022-09-07T08:30:05.137Z,11.20
2022-09-07T08:31:05.153Z,11.20
2022-09-07T08:32:05.116Z,11.00
2022-09-07T08:33:05.103Z,11.80
2022-09-07T08:34:05.093Z,11.60
2022-09-07T08:35:05.081Z,12.30
2022-09-07T08:36:05.073Z,12.20
2022-09-07T08:37:05.061Z,11.60
2022-09-07T08:38:05.077Z,10.50
2022-09-07T08:39:05.134Z,9.90
2022-09-07T08:40:05.103Z,10.20
2022-09-07T08:41:05.021Z,10.20
2022-09-07T08:42:05.010Z,10.60
2022-09-07T08:43:04.997Z,10.60
2022-09-07T08:44:04.990Z,10.30
2022-09-07T08:45:04.978Z,10.30
2022-09-07T08:46:04.966Z,10.00
2022-09-07T08:47:05.023Z,10.00
2022-09-07T08:48:04.948Z,10.30
2022-09-07T08:49:04.935Z,10.20
2022-09-07T08:50:04.930Z,9.90
2022-09-07T08:51:04.911Z,9.30
2022-09-07T08:52:04.915Z,9.90
2022-09-07T08:53:04.965Z,9.10
2022-09-07T08:54:04.902Z,9.60
2022-09-07T08:55:04.883Z,9.00
2022-09-07T08:56:04.859Z,9.10
2022-09-07T08:57:20.849Z,9.80
2022-09-07T08:58:05.865Z,9.40
2022-09-07T08:59:04.825Z,9.80
2022-09-07T09:00:04.816Z,9.70
2022-09-07T09:04:21.780Z,9.90
2022-09-07T09:05:21.267Z,10.50
2022-09-07T09:06:05.915Z,9.50
2022-09-07T09:07:04.829Z,10.70
2022-09-07T09:08:04.827Z,9.90
2022-09-07T09:09:04.723Z,10.40
2022-09-07T09:10:04.747Z,10.20
2022-09-07T09:11:04.702Z,10.40
2022-09-07T09:12:04.691Z,10.40
2022-09-07T09:13:04.680Z,10.10
2022-09-07T09:14:04.671Z,10.60
2022-09-07T09:15:04.659Z,10.20
2022-09-07T09:16:04.691Z,9.60
2022-09-07T09:17:04.637Z,10.80
2022-09-07T09:18:04.629Z,10.40
2022-09-07T09:19:04.617Z,9.50
2022-09-07T09:20:04.606Z,8.90
2022-09-07T09:21:04.607Z,9.10
2022-09-07T09:22:04.592Z,9.10
2022-09-07T09:23:04.578Z,9.00
2022-09-07T09:24:04.565Z,9.00
2022-09-07T09:25:04.552Z,9.90
2022-09-07T09:26:04.577Z,9.00
2022-09-07T09:27:04.535Z,9.00
2022-09-07T09:28:04.524Z,9.40
2022-09-07T09:29:04.511Z,9.10
2022-09-07T09:30:04.502Z,8.70
2022-09-07T09:31:04.564Z,9.30
2022-09-07T09:32:04.480Z,9.80
2022-09-07T09:33:04.469Z,9.40
2022-09-07T09:34:04.489Z,9.30
2022-09-07T09:35:04.560Z,9.00
2022-09-07T09:36:04.440Z,8.90
2022-09-07T09:37:04.429Z,8.70
2022-09-07T09:38:04.421Z,8.30
2022-09-07T09:39:04.411Z,9.00
2022-09-07T09:40:04.478Z,8.00
2022-09-07T09:41:04.389Z,7.70
2022-09-07T09:42:04.438Z,8.00
2022-09-07T09:43:04.366Z,7.00
2022-09-07T09:44:04.358Z,8.00
2022-09-07T09:45:04.352Z,7.80
2022-09-07T09:46:19.802Z,7.50
2022-09-07T09:48:04.444Z,7.70
2022-09-07T09:49:04.309Z,7.00
2022-09-07T09:50:04.297Z,6.60
2022-09-07T09:53:04.343Z,6.90
2022-09-07T09:54:04.364Z,6.70
2022-09-07T09:55:30.640Z,6.60
2022-09-07T09:56:05.294Z,7.10
2022-09-07T09:57:04.393Z,7.10
2022-09-07T09:59:05.824Z,6.50
2022-09-07T10:00:10.336Z,7.40
2022-09-07T10:01:22.106Z,7.40
2022-09-07T10:04:09.506Z,6.90
2022-09-07T10:05:05.227Z,6.90
2022-09-07T10:06:04.158Z,7.20
2022-09-07T10:07:04.122Z,7.30
2022-09-07T10:08:04.110Z,7.60
2022-09-07T10:09:04.105Z,7.10
2022-09-07T10:10:04.089Z,7.40
2022-09-07T10:11:04.178Z,7.10
2022-09-07T10:12:05.696Z,7.40
2022-09-07T10:13:04.053Z,7.70
2022-09-07T10:14:04.066Z,7.30
2022-09-07T10:15:04.035Z,7.20
2022-09-07T10:16:04.057Z,7.60
2022-09-07T10:17:04.016Z,7.00
2022-09-07T10:18:04.005Z,7.60
2022-09-07T10:19:03.995Z,7.50
2022-09-07T10:20:03.987Z,7.00
2022-09-07T10:21:03.980Z,6.80
2022-09-07T10:22:03.961Z,7.30
2022-09-07T10:23:04.010Z,6.90
2022-09-07T10:24:04.066Z,6.90
2022-09-07T10:25:03.932Z,7.40
2022-09-07T10:26:03.922Z,7.30
2022-09-07T10:27:03.918Z,7.30
2022-09-07T10:28:03.950Z,7.70
2022-09-07T10:29:07.420Z,7.00
2022-09-07T10:30:06.725Z,7.00
2022-09-07T10:31:03.917Z,6.80
2022-09-07T10:32:03.861Z,7.20
2022-09-07T10:33:03.851Z,7.60
2022-09-07T10:35:05.278Z,6.50
2022-09-07T10:36:03.848Z,7.00
2022-09-07T10:37:03.862Z,6.40
2022-09-07T10:38:03.907Z,6.70
2022-09-07T10:39:03.790Z,6.70
2022-09-07T10:40:03.809Z,6.60
2022-09-07T10:41:03.769Z,6.70
2022-09-07T10:42:03.763Z,7.60
2022-09-07T10:44:03.739Z,6.50
2022-09-07T10:45:03.727Z,6.20
2022-09-07T10:46:03.812Z,6.70
2022-09-07T10:47:03.788Z,6.70
2022-09-07T10:48:03.694Z,7.10
2022-09-07T10:49:03.683Z,7.40
2022-09-07T10:51:13.432Z,6.60
2022-09-07T10:52:04.682Z,6.20
2022-09-07T10:53:17.998Z,5.20
2022-09-07T10:55:03.623Z,5.90
2022-09-07T10:56:03.615Z,5.30
2022-09-07T10:57:03.614Z,5.90
2022-09-07T10:58:03.595Z,5.50
2022-09-07T10:59:04.275Z,5.20
2022-09-07T11:00:11.116Z,5.10
2022-09-07T11:01:04.632Z,4.80
2022-09-07T11:02:03.579Z,4.80
2022-09-07T11:04:04.698Z,5.10
2022-09-07T11:05:03.675Z,4.90
2022-09-07T11:06:03.519Z,4.60
2022-09-07T11:07:03.507Z,4.90
2022-09-07T11:08:03.499Z,5.00
2022-09-07T11:09:19.836Z,4.70
2022-09-07T11:10:04.504Z,4.50
2022-09-07T11:11:03.466Z,4.10
2022-09-07T11:12:04.292Z,4.50
2022-09-07T11:13:03.440Z,4.30
2022-09-07T11:14:12.997Z,3.80
2022-09-07T11:15:04.450Z,4.30
2022-09-07T11:16:03.521Z,4.00
2022-09-07T11:17:03.659Z,4.30
2022-09-07T11:18:03.417Z,4.00
2022-09-07T11:20:03.460Z,5.00
2022-09-07T11:21:03.366Z,4.70
2022-09-07T11:22:03.358Z,4.80
2022-09-07T11:23:03.343Z,5.10
2022-09-07T11:24:03.332Z,5.50
2022-09-07T11:26:03.313Z,4.80
2022-09-07T11:27:03.301Z,4.40
2022-09-07T11:28:03.289Z,4.40
2022-09-07T11:30:03.378Z,4.00
2022-09-07T11:31:03.283Z,3.90
2022-09-07T11:32:03.246Z,3.60
2022-09-07T11:33:03.239Z,3.90
2022-09-07T11:35:04.247Z,3.90
2022-09-07T11:36:03.209Z,4.70
2022-09-07T11:37:03.197Z,4.50
2022-09-07T11:38:03.225Z,4.10
2022-09-07T11:39:03.179Z,3.70
2022-09-07T11:40:03.206Z,3.80
2022-09-07T11:41:03.155Z,3.40
2022-09-07T11:42:42.854Z,3.40
2022-09-07T11:43:04.176Z,3.10
2022-09-07T11:44:03.123Z,3.60
2022-09-07T11:45:03.127Z,3.30
2022-09-07T11:46:03.147Z,4.00
2022-09-07T11:47:03.098Z,3.50
2022-09-07T11:48:03.082Z,4.00
2022-09-07T11:49:04.587Z,3.70
2022-09-07T11:50:03.083Z,3.60
2022-09-07T11:51:03.058Z,3.60
2022-09-07T11:52:06.101Z,3.70
2022-09-07T11:53:03.130Z,3.50
2022-09-07T11:54:03.022Z,3.40
2022-09-07T11:55:03.014Z,3.30
2022-09-07T11:56:03.004Z,3.20
2022-09-07T11:57:02.996Z,3.10
2022-09-07T11:58:02.982Z,3.50
2022-09-07T11:59:02.972Z,3.20
2022-09-07T12:00:02.961Z,3.10
2022-09-07T12:01:02.953Z,3.10
2022-09-07T12:02:02.937Z,2.80
2022-09-07T12:03:02.987Z,3.00
2022-09-07T12:04:03.076Z,3.00
2022-09-07T12:05:03.132Z,3.00
2022-09-07T12:06:02.973Z,3.00
2022-09-07T12:07:02.885Z,3.00
2022-09-07T12:08:02.878Z,3.10
2022-09-07T12:09:02.869Z,3.20
2022-09-07T12:10:02.861Z,2.80
2022-09-07T12:11:02.850Z,3.40
2022-09-07T12:12:02.838Z,3.00
2022-09-07T12:13:02.827Z,2.50
2022-09-07T12:14:02.815Z,2.50
2022-09-07T12:15:02.810Z,2.50
2022-09-07T12:16:02.923Z,2.50
2022-09-07T12:17:02.858Z,2.50
2022-09-07T12:18:02.776Z,2.40
2022-09-07T12:19:02.764Z,2.10
2022-09-07T12:20:02.753Z,2.50
2022-09-07T12:21:02.754Z,2.10
2022-09-07T12:22:02.880Z,2.00
2022-09-07T12:23:05.209Z,2.10
2022-09-07T12:24:02.710Z,1.90
2022-09-07T12:25:02.703Z,2.00
2022-09-07T12:26:02.692Z,2.00
2022-09-07T12:27:02.683Z,1.90
2022-09-07T12:28:02.669Z,1.80
2022-09-07T12:29:02.661Z,1.80
2022-09-07T12:30:02.738Z,1.80
2022-09-07T12:31:02.769Z,1.80
2022-09-07T12:33:02.722Z,1.80
2022-09-07T12:34:02.609Z,1.80
2022-09-07T12:35:02.766Z,2.00
2022-09-07T12:36:02.588Z,1.80
2022-09-07T12:37:02.579Z,1.70
2022-09-07T12:38:02.587Z,1.80
2022-09-07T12:39:02.562Z,1.80
2022-09-07T12:40:02.608Z,1.80
2022-09-07T12:41:02.549Z,1.80
2022-09-07T12:43:09.690Z,2.10
2022-09-07T12:44:03.532Z,2.60
2022-09-07T12:45:02.499Z,2.20
2022-09-07T12:46:02.550Z,2.00
2022-09-07T12:47:02.479Z,2.00
2022-09-07T12:48:02.700Z,2.10
2022-09-07T12:49:02.456Z,1.90
2022-09-07T12:50:02.574Z,1.90
2022-09-07T12:51:02.434Z,2.10
2022-09-07T12:52:11.583Z,2.10
2022-09-07T12:53:03.442Z,2.00
2022-09-07T12:54:02.526Z,1.90
2022-09-07T12:55:26.214Z,1.90
2022-09-07T12:56:18.166Z,2.10
2022-09-07T12:58:02.363Z,2.30
2022-09-07T12:59:02.358Z,1.90
2022-09-07T13:00:02.457Z,1.80
2022-09-07T13:01:05.219Z,1.80
2022-09-07T13:02:02.450Z,2.00
2022-09-07T13:03:03.907Z,1.90
2022-09-07T13:04:02.300Z,2.20
2022-09-07T13:05:02.290Z,2.00
2022-09-07T13:06:02.369Z,2.00
2022-09-07T13:07:02.753Z,2.40
2022-09-07T13:08:08.626Z,1.90
2022-09-07T13:09:03.278Z,2.20
2022-09-07T13:10:02.270Z,2.40
2022-09-07T13:11:02.230Z,2.00
2022-09-07T13:12:02.217Z,2.30
2022-09-07T13:13:02.208Z,2.40
2022-09-07T13:14:10.761Z,2.20
2022-09-07T13:15:02.186Z,2.30
2022-09-07T13:16:03.763Z,2.10
2022-09-07T13:17:17.830Z,2.10
2022-09-07T13:18:03.185Z,2.50
2022-09-07T13:19:02.639Z,2.30
2022-09-07T13:20:02.310Z,2.30
2022-09-07T13:21:02.128Z,2.20
2022-09-07T13:22:02.146Z,1.90
2022-09-07T13:23:02.104Z,2.30
2022-09-07T13:24:45.646Z,2.20
2022-09-07T13:25:03.213Z,1.90
2022-09-07T13:26:02.101Z,2.00
2022-09-07T13:27:02.063Z,2.10
2022-09-07T13:28:02.058Z,1.90
2022-09-07T13:29:02.041Z,2.10
2022-09-07T13:30:02.033Z,1.90
2022-09-07T13:31:02.108Z,1.80
2022-09-07T13:32:02.012Z,2.00
2022-09-07T13:33:09.343Z,2.00
2022-09-07T13:34:03.020Z,2.10
2022-09-07T13:35:01.991Z,1.70
2022-09-07T13:36:01.996Z,1.80
2022-09-07T13:37:02.026Z,1.80
2022-09-07T13:38:01.945Z,2.00
2022-09-07T13:39:01.938Z,1.70
2022-09-07T13:40:02.095Z,1.70
2022-09-07T13:41:01.918Z,2.10
2022-09-07T13:42:01.927Z,2.00
2022-09-07T13:43:01.910Z,2.00
2022-09-07T13:44:01.890Z,1.90